sensor_id;sensor_type;location;lat;lon;timestamp;P1;durP1;ratioP1;P2;durP2;ratioP2
34278;SDS011;20538;51.528;9.942;2023-06-05T00:02:15;4.18;;;2.70;;
34278;SDS011;20538;51.528;9.942;2023-06-05T00:04:41;3.75;;;2.35;;
34278;SDS011;20538;51.528;9.942;2023-06-05T00:07:08;7.35;;;2.50;;
34278;SDS011;20538;51.528;9.942;2023-06-05T00:09:34;4.30;;;2.53;;
34278;SDS011;20538;51.528;9.942;2023-06-05T00:11:59;5.03;;;2.30;;
34278;SDS011;20538;51.528;9.942;2023-06-05T00:14:25;4.70;;;2.33;;
34278;SDS011;20538;51.528;9.942;2023-06-05T00:16:51;4.70;;;2.40;;
34278;SDS011;20538;51.528;9.942;2023-06-05T00:19:17;5.32;;;2.25;;
34278;SDS011;20538;51.528;9.942;2023-06-05T00:21:42;4.47;;;2.13;;
34278;SDS011;20538;51.528;9.942;2023-06-05T00:24:08;3.88;;;2.38;;
34278;SDS011;20538;51.528;9.942;2023-06-05T00:26:34;5.60;;;2.15;;
34278;SDS011;20538;51.528;9.942;2023-06-05T00:28:59;4.57;;;2.05;;
34278;SDS011;20538;51.528;9.942;2023-06-05T00:31:25;8.00;;;2.30;;
34278;SDS011;20538;51.528;9.942;2023-06-05T00:33:51;4.45;;;2.10;;
34278;SDS011;20538;51.528;9.942;2023-06-05T00:36:17;2.75;;;2.00;;
34278;SDS011;20538;51.528;9.942;2023-06-05T00:38:47;4.57;;;2.00;;
34278;SDS011;20538;51.528;9.942;2023-06-05T00:41:14;6.88;;;3.03;;
34278;SDS011;20538;51.528;9.942;2023-06-05T00:43:39;4.47;;;1.88;;
34278;SDS011;20538;51.528;9.942;2023-06-05T00:46:08;6.55;;;2.35;;
34278;SDS011;20538;51.528;9.942;2023-06-05T00:48:36;6.05;;;2.22;;
34278;SDS011;20538;51.528;9.942;2023-06-05T00:51:02;7.20;;;2.22;;
34278;SDS011;20538;51.528;9.942;2023-06-05T00:53:28;3.30;;;2.10;;
34278;SDS011;20538;51.528;9.942;2023-06-05T00:55:57;7.43;;;2.65;;
34278;SDS011;20538;51.528;9.942;2023-06-05T00:58:23;4.00;;;2.25;;
34278;SDS011;20538;51.528;9.942;2023-06-05T01:00:50;5.18;;;2.05;;
34278;SDS011;20538;51.528;9.942;2023-06-05T01:03:16;8.25;;;2.10;;
34278;SDS011;20538;51.528;9.942;2023-06-05T01:05:42;5.65;;;2.08;;
34278;SDS011;20538;51.528;9.942;2023-06-05T01:08:08;5.68;;;3.10;;
34278;SDS011;20538;51.528;9.942;2023-06-05T01:10:42;7.15;;;2.70;;
34278;SDS011;20538;51.528;9.942;2023-06-05T01:15:46;4.30;;;2.90;;
34278;SDS011;20538;51.528;9.942;2023-06-05T01:18:15;10.20;;;2.50;;
34278;SDS011;20538;51.528;9.942;2023-06-05T01:20:43;6.38;;;3.03;;
34278;SDS011;20538;51.528;9.942;2023-06-05T01:23:09;5.43;;;2.40;;
34278;SDS011;20538;51.528;9.942;2023-06-05T01:25:35;4.10;;;2.58;;
34278;SDS011;20538;51.528;9.942;2023-06-05T01:33:40;6.75;;;2.78;;
34278;SDS011;20538;51.528;9.942;2023-06-05T01:36:10;3.90;;;2.20;;
34278;SDS011;20538;51.528;9.942;2023-06-05T01:38:38;3.70;;;2.08;;
34278;SDS011;20538;51.528;9.942;2023-06-05T01:41:06;15.02;;;3.15;;
34278;SDS011;20538;51.528;9.942;2023-06-05T01:43:33;5.25;;;2.35;;
34278;SDS011;20538;51.528;9.942;2023-06-05T01:46:00;5.35;;;2.22;;
34278;SDS011;20538;51.528;9.942;2023-06-05T01:48:26;3.80;;;2.10;;
34278;SDS011;20538;51.528;9.942;2023-06-05T01:50:56;6.85;;;2.65;;
34278;SDS011;20538;51.528;9.942;2023-06-05T01:53:23;5.68;;;2.38;;
34278;SDS011;20538;51.528;9.942;2023-06-05T01:55:49;3.92;;;2.40;;
34278;SDS011;20538;51.528;9.942;2023-06-05T01:58:19;4.22;;;2.70;;
34278;SDS011;20538;51.528;9.942;2023-06-05T02:00:46;4.93;;;2.40;;
34278;SDS011;20538;51.528;9.942;2023-06-05T02:03:12;3.95;;;2.10;;
34278;SDS011;20538;51.528;9.942;2023-06-05T02:05:41;4.05;;;2.58;;
34278;SDS011;20538;51.528;9.942;2023-06-05T02:08:07;7.47;;;2.70;;
34278;SDS011;20538;51.528;9.942;2023-06-05T02:10:34;7.35;;;2.65;;
34278;SDS011;20538;51.528;9.942;2023-06-05T02:13:00;3.80;;;2.33;;
34278;SDS011;20538;51.528;9.942;2023-06-05T02:15:26;3.63;;;2.15;;
34278;SDS011;20538;51.528;9.942;2023-06-05T02:17:53;6.22;;;2.50;;
34278;SDS011;20538;51.528;9.942;2023-06-05T02:20:20;5.50;;;2.55;;
34278;SDS011;20538;51.528;9.942;2023-06-05T02:22:48;4.90;;;2.40;;
34278;SDS011;20538;51.528;9.942;2023-06-05T02:25:20;5.93;;;2.55;;
34278;SDS011;20538;51.528;9.942;2023-06-05T02:27:46;4.32;;;2.42;;
34278;SDS011;20538;51.528;9.942;2023-06-05T02:30:13;7.65;;;2.63;;
34278;SDS011;20538;51.528;9.942;2023-06-05T02:32:39;4.57;;;2.30;;
34278;SDS011;20538;51.528;9.942;2023-06-05T02:35:11;10.00;;;2.45;;
34278;SDS011;20538;51.528;9.942;2023-06-05T02:37:37;6.82;;;3.13;;
34278;SDS011;20538;51.528;9.942;2023-06-05T02:40:08;4.47;;;2.53;;
34278;SDS011;20538;51.528;9.942;2023-06-05T02:42:35;4.72;;;2.83;;
34278;SDS011;20538;51.528;9.942;2023-06-05T02:45:01;4.53;;;2.58;;
34278;SDS011;20538;51.528;9.942;2023-06-05T02:47:27;5.25;;;2.17;;
34278;SDS011;20538;51.528;9.942;2023-06-05T02:49:54;6.43;;;2.75;;
34278;SDS011;20538;51.528;9.942;2023-06-05T02:52:19;4.70;;;2.50;;
34278;SDS011;20538;51.528;9.942;2023-06-05T02:54:45;6.65;;;2.78;;
34278;SDS011;20538;51.528;9.942;2023-06-05T02:57:11;4.57;;;2.17;;
34278;SDS011;20538;51.528;9.942;2023-06-05T02:59:37;5.80;;;2.70;;
34278;SDS011;20538;51.528;9.942;2023-06-05T03:02:05;3.08;;;2.25;;
34278;SDS011;20538;51.528;9.942;2023-06-05T03:04:31;7.70;;;2.30;;
34278;SDS011;20538;51.528;9.942;2023-06-05T03:06:57;4.60;;;2.63;;
34278;SDS011;20538;51.528;9.942;2023-06-05T03:09:28;5.78;;;2.55;;
34278;SDS011;20538;51.528;9.942;2023-06-05T03:11:53;5.38;;;2.40;;
34278;SDS011;20538;51.528;9.942;2023-06-05T03:14:19;4.00;;;2.60;;
34278;SDS011;20538;51.528;9.942;2023-06-05T03:16:45;4.28;;;2.53;;
34278;SDS011;20538;51.528;9.942;2023-06-05T03:19:11;5.57;;;2.20;;
34278;SDS011;20538;51.528;9.942;2023-06-05T03:21:37;3.83;;;2.63;;
34278;SDS011;20538;51.528;9.942;2023-06-05T03:24:10;5.55;;;2.90;;
34278;SDS011;20538;51.528;9.942;2023-06-05T03:26:40;6.03;;;2.63;;
34278;SDS011;20538;51.528;9.942;2023-06-05T03:29:07;5.05;;;2.60;;
34278;SDS011;20538;51.528;9.942;2023-06-05T03:31:36;6.82;;;2.63;;
34278;SDS011;20538;51.528;9.942;2023-06-05T03:34:02;3.83;;;2.45;;
34278;SDS011;20538;51.528;9.942;2023-06-05T03:36:28;3.63;;;2.30;;
34278;SDS011;20538;51.528;9.942;2023-06-05T03:38:55;3.55;;;2.58;;
34278;SDS011;20538;51.528;9.942;2023-06-05T03:41:21;4.63;;;2.33;;
34278;SDS011;20538;51.528;9.942;2023-06-05T03:43:50;5.50;;;2.63;;
34278;SDS011;20538;51.528;9.942;2023-06-05T03:46:16;6.72;;;2.67;;
34278;SDS011;20538;51.528;9.942;2023-06-05T03:48:45;5.00;;;2.63;;
34278;SDS011;20538;51.528;9.942;2023-06-05T03:51:11;4.55;;;2.47;;
34278;SDS011;20538;51.528;9.942;2023-06-05T03:53:38;4.65;;;2.47;;
34278;SDS011;20538;51.528;9.942;2023-06-05T03:56:08;4.72;;;2.63;;
34278;SDS011;20538;51.528;9.942;2023-06-05T03:58:34;3.75;;;2.42;;
34278;SDS011;20538;51.528;9.942;2023-06-05T04:00:59;8.57;;;2.70;;
34278;SDS011;20538;51.528;9.942;2023-06-05T04:03:25;5.57;;;2.20;;
34278;SDS011;20538;51.528;9.942;2023-06-05T04:05:52;5.82;;;2.50;;
34278;SDS011;20538;51.528;9.942;2023-06-05T04:08:18;5.43;;;2.83;;
34278;SDS011;20538;51.528;9.942;2023-06-05T04:10:43;4.03;;;2.30;;
34278;SDS011;20538;51.528;9.942;2023-06-05T04:13:09;6.47;;;2.33;;
34278;SDS011;20538;51.528;9.942;2023-06-05T04:15:35;6.65;;;2.50;;
34278;SDS011;20538;51.528;9.942;2023-06-05T04:18:02;4.70;;;2.17;;
34278;SDS011;20538;51.528;9.942;2023-06-05T04:20:27;3.95;;;2.72;;
34278;SDS011;20538;51.528;9.942;2023-06-05T04:22:53;5.80;;;2.03;;
34278;SDS011;20538;51.528;9.942;2023-06-05T04:25:19;4.45;;;2.50;;
34278;SDS011;20538;51.528;9.942;2023-06-05T04:27:45;3.83;;;2.33;;
34278;SDS011;20538;51.528;9.942;2023-06-05T04:30:13;6.93;;;2.83;;
34278;SDS011;20538;51.528;9.942;2023-06-05T04:32:42;4.10;;;2.75;;
34278;SDS011;20538;51.528;9.942;2023-06-05T04:35:09;6.90;;;2.72;;
34278;SDS011;20538;51.528;9.942;2023-06-05T04:37:35;6.45;;;2.85;;
34278;SDS011;20538;51.528;9.942;2023-06-05T04:40:02;5.13;;;2.38;;
34278;SDS011;20538;51.528;9.942;2023-06-05T04:42:32;4.68;;;2.38;;
34278;SDS011;20538;51.528;9.942;2023-06-05T04:44:59;5.40;;;2.20;;
34278;SDS011;20538;51.528;9.942;2023-06-05T04:47:27;7.53;;;2.55;;
34278;SDS011;20538;51.528;9.942;2023-06-05T04:49:52;4.57;;;2.20;;
34278;SDS011;20538;51.528;9.942;2023-06-05T04:52:20;2.83;;;2.00;;
34278;SDS011;20538;51.528;9.942;2023-06-05T04:54:46;7.70;;;2.22;;
34278;SDS011;20538;51.528;9.942;2023-06-05T04:57:12;3.58;;;1.92;;
34278;SDS011;20538;51.528;9.942;2023-06-05T04:59:38;3.58;;;1.90;;
34278;SDS011;20538;51.528;9.942;2023-06-05T05:02:03;2.70;;;2.10;;
34278;SDS011;20538;51.528;9.942;2023-06-05T05:04:29;6.10;;;2.53;;
34278;SDS011;20538;51.528;9.942;2023-06-05T05:06:55;4.78;;;2.10;;
34278;SDS011;20538;51.528;9.942;2023-06-05T05:09:28;3.30;;;2.10;;
34278;SDS011;20538;51.528;9.942;2023-06-05T05:11:55;5.28;;;1.98;;
34278;SDS011;20538;51.528;9.942;2023-06-05T05:14:25;3.40;;;2.42;;
34278;SDS011;20538;51.528;9.942;2023-06-05T05:16:52;5.00;;;1.90;;
34278;SDS011;20538;51.528;9.942;2023-06-05T05:19:18;4.60;;;1.77;;
34278;SDS011;20538;51.528;9.942;2023-06-05T05:21:45;4.63;;;2.20;;
34278;SDS011;20538;51.528;9.942;2023-06-05T05:24:12;3.83;;;2.55;;
34278;SDS011;20538;51.528;9.942;2023-06-05T05:26:37;6.32;;;2.22;;
34278;SDS011;20538;51.528;9.942;2023-06-05T05:29:04;4.35;;;2.25;;
34278;SDS011;20538;51.528;9.942;2023-06-05T05:31:30;5.30;;;2.15;;
34278;SDS011;20538;51.528;9.942;2023-06-05T05:33:56;5.22;;;2.33;;
34278;SDS011;20538;51.528;9.942;2023-06-05T05:36:23;3.10;;;1.80;;
34278;SDS011;20538;51.528;9.942;2023-06-05T05:38:50;6.22;;;2.25;;
34278;SDS011;20538;51.528;9.942;2023-06-05T05:41:16;5.18;;;2.20;;
34278;SDS011;20538;51.528;9.942;2023-06-05T05:43:42;5.70;;;2.58;;
34278;SDS011;20538;51.528;9.942;2023-06-05T05:46:07;4.35;;;2.20;;
34278;SDS011;20538;51.528;9.942;2023-06-05T05:48:36;5.03;;;2.45;;
34278;SDS011;20538;51.528;9.942;2023-06-05T05:51:02;4.18;;;2.25;;
34278;SDS011;20538;51.528;9.942;2023-06-05T05:53:30;5.05;;;1.90;;
34278;SDS011;20538;51.528;9.942;2023-06-05T05:55:56;6.13;;;2.78;;
34278;SDS011;20538;51.528;9.942;2023-06-05T05:58:21;6.97;;;2.45;;
34278;SDS011;20538;51.528;9.942;2023-06-05T06:00:47;7.13;;;2.90;;
34278;SDS011;20538;51.528;9.942;2023-06-05T06:03:13;6.65;;;2.83;;
34278;SDS011;20538;51.528;9.942;2023-06-05T06:05:40;6.22;;;2.40;;
34278;SDS011;20538;51.528;9.942;2023-06-05T06:08:06;4.82;;;2.17;;
34278;SDS011;20538;51.528;9.942;2023-06-05T06:10:32;4.40;;;2.42;;
34278;SDS011;20538;51.528;9.942;2023-06-05T06:12:58;4.38;;;2.45;;
34278;SDS011;20538;51.528;9.942;2023-06-05T06:15:24;4.45;;;2.60;;
34278;SDS011;20538;51.528;9.942;2023-06-05T06:17:50;8.73;;;2.90;;
34278;SDS011;20538;51.528;9.942;2023-06-05T06:20:16;4.85;;;2.40;;
34278;SDS011;20538;51.528;9.942;2023-06-05T06:22:41;4.10;;;2.50;;
34278;SDS011;20538;51.528;9.942;2023-06-05T06:25:08;7.85;;;2.85;;
34278;SDS011;20538;51.528;9.942;2023-06-05T06:27:35;5.80;;;3.35;;
34278;SDS011;20538;51.528;9.942;2023-06-05T06:30:02;5.57;;;2.95;;
34278;SDS011;20538;51.528;9.942;2023-06-05T06:32:28;6.72;;;3.55;;
34278;SDS011;20538;51.528;9.942;2023-06-05T06:34:57;7.85;;;3.20;;
34278;SDS011;20538;51.528;9.942;2023-06-05T06:37:24;8.88;;;3.47;;
34278;SDS011;20538;51.528;9.942;2023-06-05T06:39:50;4.78;;;2.95;;
34278;SDS011;20538;51.528;9.942;2023-06-05T06:42:16;7.03;;;2.78;;
34278;SDS011;20538;51.528;9.942;2023-06-05T06:44:42;10.98;;;3.45;;
34278;SDS011;20538;51.528;9.942;2023-06-05T06:47:08;6.57;;;3.08;;
34278;SDS011;20538;51.528;9.942;2023-06-05T06:49:34;5.85;;;2.78;;
34278;SDS011;20538;51.528;9.942;2023-06-05T06:52:00;13.60;;;3.22;;
34278;SDS011;20538;51.528;9.942;2023-06-05T06:54:26;8.55;;;3.00;;
34278;SDS011;20538;51.528;9.942;2023-06-05T06:56:54;7.93;;;3.42;;
34278;SDS011;20538;51.528;9.942;2023-06-05T06:59:20;7.68;;;3.42;;
34278;SDS011;20538;51.528;9.942;2023-06-05T07:01:46;6.72;;;2.90;;
34278;SDS011;20538;51.528;9.942;2023-06-05T07:04:32;4.30;;;2.70;;
34278;SDS011;20538;51.528;9.942;2023-06-05T07:06:58;8.73;;;3.08;;
34278;SDS011;20538;51.528;9.942;2023-06-05T07:09:24;9.63;;;3.42;;
34278;SDS011;20538;51.528;9.942;2023-06-05T07:11:50;8.55;;;3.30;;
34278;SDS011;20538;51.528;9.942;2023-06-05T07:14:16;4.72;;;2.75;;
34278;SDS011;20538;51.528;9.942;2023-06-05T07:16:41;9.05;;;3.00;;
34278;SDS011;20538;51.528;9.942;2023-06-05T07:19:07;9.00;;;3.33;;
34278;SDS011;20538;51.528;9.942;2023-06-05T07:21:33;8.82;;;3.40;;
34278;SDS011;20538;51.528;9.942;2023-06-05T07:24:03;12.77;;;3.58;;
34278;SDS011;20538;51.528;9.942;2023-06-05T07:26:29;8.30;;;3.20;;
34278;SDS011;20538;51.528;9.942;2023-06-05T07:28:55;8.93;;;3.03;;
34278;SDS011;20538;51.528;9.942;2023-06-05T07:31:21;9.23;;;3.25;;
34278;SDS011;20538;51.528;9.942;2023-06-05T07:33:47;10.75;;;3.10;;
34278;SDS011;20538;51.528;9.942;2023-06-05T07:36:13;18.88;;;3.22;;
34278;SDS011;20538;51.528;9.942;2023-06-05T07:38:39;10.20;;;3.22;;
34278;SDS011;20538;51.528;9.942;2023-06-05T07:41:06;10.48;;;2.92;;
34278;SDS011;20538;51.528;9.942;2023-06-05T07:43:36;10.43;;;3.88;;
34278;SDS011;20538;51.528;9.942;2023-06-05T07:46:04;9.77;;;3.47;;
34278;SDS011;20538;51.528;9.942;2023-06-05T07:48:31;9.70;;;3.97;;
34278;SDS011;20538;51.528;9.942;2023-06-05T07:50:56;14.45;;;3.50;;
34278;SDS011;20538;51.528;9.942;2023-06-05T07:53:22;12.88;;;3.20;;
34278;SDS011;20538;51.528;9.942;2023-06-05T07:55:48;6.97;;;3.33;;
34278;SDS011;20538;51.528;9.942;2023-06-05T07:58:13;7.55;;;3.10;;
34278;SDS011;20538;51.528;9.942;2023-06-05T08:00:40;10.60;;;3.53;;
34278;SDS011;20538;51.528;9.942;2023-06-05T08:03:13;8.27;;;3.08;;
34278;SDS011;20538;51.528;9.942;2023-06-05T08:05:45;6.85;;;3.40;;
34278;SDS011;20538;51.528;9.942;2023-06-05T08:08:15;9.38;;;3.17;;
34278;SDS011;20538;51.528;9.942;2023-06-05T08:10:41;6.78;;;3.20;;
34278;SDS011;20538;51.528;9.942;2023-06-05T08:13:07;8.48;;;3.60;;
34278;SDS011;20538;51.528;9.942;2023-06-05T08:15:34;12.80;;;3.28;;
34278;SDS011;20538;51.528;9.942;2023-06-05T08:18:00;6.90;;;3.95;;
34278;SDS011;20538;51.528;9.942;2023-06-05T08:20:25;9.73;;;3.20;;
34278;SDS011;20538;51.528;9.942;2023-06-05T08:22:51;8.10;;;3.53;;
34278;SDS011;20538;51.528;9.942;2023-06-05T08:25:17;6.30;;;3.10;;
34278;SDS011;20538;51.528;9.942;2023-06-05T08:27:43;5.35;;;2.90;;
34278;SDS011;20538;51.528;9.942;2023-06-05T08:30:09;7.38;;;2.63;;
34278;SDS011;20538;51.528;9.942;2023-06-05T08:32:36;6.72;;;2.88;;
34278;SDS011;20538;51.528;9.942;2023-06-05T08:35:01;7.57;;;2.72;;
34278;SDS011;20538;51.528;9.942;2023-06-05T08:37:27;10.25;;;3.53;;
34278;SDS011;20538;51.528;9.942;2023-06-05T08:39:53;5.95;;;2.88;;
34278;SDS011;20538;51.528;9.942;2023-06-05T08:42:24;7.00;;;2.80;;
34278;SDS011;20538;51.528;9.942;2023-06-05T08:44:54;5.03;;;2.45;;
34278;SDS011;20538;51.528;9.942;2023-06-05T08:47:19;5.95;;;2.40;;
34278;SDS011;20538;51.528;9.942;2023-06-05T08:49:49;8.25;;;2.30;;
34278;SDS011;20538;51.528;9.942;2023-06-05T08:52:19;7.55;;;2.72;;
34278;SDS011;20538;51.528;9.942;2023-06-05T08:54:47;7.88;;;2.53;;
34278;SDS011;20538;51.528;9.942;2023-06-05T08:57:14;6.15;;;2.80;;
34278;SDS011;20538;51.528;9.942;2023-06-05T08:59:40;6.25;;;2.20;;
34278;SDS011;20538;51.528;9.942;2023-06-05T09:02:08;5.90;;;2.47;;
34278;SDS011;20538;51.528;9.942;2023-06-05T09:04:35;2.75;;;1.88;;
34278;SDS011;20538;51.528;9.942;2023-06-05T09:07:01;5.60;;;2.70;;
34278;SDS011;20538;51.528;9.942;2023-06-05T09:09:27;8.93;;;2.80;;
34278;SDS011;20538;51.528;9.942;2023-06-05T09:12:02;5.75;;;2.97;;
34278;SDS011;20538;51.528;9.942;2023-06-05T09:14:30;8.38;;;2.88;;
34278;SDS011;20538;51.528;9.942;2023-06-05T09:16:56;4.95;;;2.30;;
34278;SDS011;20538;51.528;9.942;2023-06-05T09:19:22;6.38;;;2.30;;
34278;SDS011;20538;51.528;9.942;2023-06-05T09:21:52;3.90;;;2.35;;
34278;SDS011;20538;51.528;9.942;2023-06-05T09:24:22;3.55;;;2.08;;
34278;SDS011;20538;51.528;9.942;2023-06-05T09:29:26;5.18;;;2.03;;
34278;SDS011;20538;51.528;9.942;2023-06-05T09:31:55;6.22;;;1.98;;
34278;SDS011;20538;51.528;9.942;2023-06-05T09:34:29;3.67;;;1.90;;
34278;SDS011;20538;51.528;9.942;2023-06-05T09:36:57;3.85;;;2.28;;
34278;SDS011;20538;51.528;9.942;2023-06-05T09:39:24;4.28;;;2.15;;
34278;SDS011;20538;51.528;9.942;2023-06-05T09:41:53;4.75;;;1.90;;
34278;SDS011;20538;51.528;9.942;2023-06-05T09:44:20;4.10;;;1.80;;
34278;SDS011;20538;51.528;9.942;2023-06-05T09:46:57;4.50;;;2.05;;
34278;SDS011;20538;51.528;9.942;2023-06-05T09:49:31;5.35;;;1.83;;
34278;SDS011;20538;51.528;9.942;2023-06-05T09:52:11;6.30;;;1.92;;
34278;SDS011;20538;51.528;9.942;2023-06-05T09:54:39;4.93;;;2.17;;
34278;SDS011;20538;51.528;9.942;2023-06-05T09:57:07;5.07;;;2.03;;
34278;SDS011;20538;51.528;9.942;2023-06-05T09:59:37;4.25;;;1.88;;
34278;SDS011;20538;51.528;9.942;2023-06-05T10:02:16;4.97;;;2.25;;
34278;SDS011;20538;51.528;9.942;2023-06-05T10:04:50;3.25;;;1.90;;
34278;SDS011;20538;51.528;9.942;2023-06-05T10:07:21;4.38;;;1.90;;
34278;SDS011;20538;51.528;9.942;2023-06-05T10:09:51;4.05;;;1.85;;
34278;SDS011;20538;51.528;9.942;2023-06-05T10:12:18;5.20;;;1.85;;
34278;SDS011;20538;51.528;9.942;2023-06-05T10:14:44;4.32;;;1.90;;
34278;SDS011;20538;51.528;9.942;2023-06-05T10:17:12;4.45;;;2.00;;
34278;SDS011;20538;51.528;9.942;2023-06-05T10:19:40;6.15;;;2.00;;
34278;SDS011;20538;51.528;9.942;2023-06-05T10:22:09;4.30;;;2.20;;
34278;SDS011;20538;51.528;9.942;2023-06-05T10:24:37;3.90;;;2.08;;
34278;SDS011;20538;51.528;9.942;2023-06-05T10:38:26;4.78;;;2.28;;
34278;SDS011;20538;51.528;9.942;2023-06-05T10:40:57;5.93;;;2.38;;
34278;SDS011;20538;51.528;9.942;2023-06-05T10:43:35;3.25;;;1.80;;
34278;SDS011;20538;51.528;9.942;2023-06-05T10:46:02;3.05;;;1.92;;
34278;SDS011;20538;51.528;9.942;2023-06-05T10:54:07;6.22;;;2.45;;
34278;SDS011;20538;51.528;9.942;2023-06-05T10:59:29;3.83;;;2.30;;
34278;SDS011;20538;51.528;9.942;2023-06-05T11:15:08;5.45;;;2.42;;
34278;SDS011;20538;51.528;9.942;2023-06-05T11:17:36;3.97;;;2.03;;
34278;SDS011;20538;51.528;9.942;2023-06-05T11:20:08;7.93;;;2.95;;
34278;SDS011;20538;51.528;9.942;2023-06-05T11:28:02;5.80;;;2.17;;
34278;SDS011;20538;51.528;9.942;2023-06-05T11:30:33;6.03;;;2.65;;
34278;SDS011;20538;51.528;9.942;2023-06-05T11:33:09;4.05;;;2.03;;
34278;SDS011;20538;51.528;9.942;2023-06-05T11:35:37;2.65;;;1.98;;
34278;SDS011;20538;51.528;9.942;2023-06-05T11:40:39;6.10;;;2.75;;
34278;SDS011;20538;51.528;9.942;2023-06-05T11:43:06;4.07;;;2.30;;
34278;SDS011;20538;51.528;9.942;2023-06-05T11:45:34;4.32;;;1.92;;
34278;SDS011;20538;51.528;9.942;2023-06-05T11:48:04;7.03;;;2.65;;
34278;SDS011;20538;51.528;9.942;2023-06-05T11:50:30;4.78;;;2.15;;
34278;SDS011;20538;51.528;9.942;2023-06-05T11:53:10;7.32;;;2.38;;
34278;SDS011;20538;51.528;9.942;2023-06-05T11:55:36;6.60;;;2.30;;
34278;SDS011;20538;51.528;9.942;2023-06-05T11:58:23;5.10;;;2.50;;
34278;SDS011;20538;51.528;9.942;2023-06-05T12:00:49;5.93;;;2.33;;
34278;SDS011;20538;51.528;9.942;2023-06-05T12:03:19;8.27;;;2.75;;
34278;SDS011;20538;51.528;9.942;2023-06-05T12:05:46;4.25;;;2.15;;
34278;SDS011;20538;51.528;9.942;2023-06-05T12:08:22;3.10;;;2.28;;
34278;SDS011;20538;51.528;9.942;2023-06-05T12:10:57;6.68;;;2.72;;
34278;SDS011;20538;51.528;9.942;2023-06-05T12:13:43;5.28;;;2.72;;
34278;SDS011;20538;51.528;9.942;2023-06-05T12:16:09;6.95;;;2.50;;
34278;SDS011;20538;51.528;9.942;2023-06-05T12:18:35;5.22;;;2.40;;
34278;SDS011;20538;51.528;9.942;2023-06-05T12:21:01;10.68;;;2.53;;
34278;SDS011;20538;51.528;9.942;2023-06-05T12:23:31;5.35;;;2.55;;
34278;SDS011;20538;51.528;9.942;2023-06-05T12:25:58;5.35;;;2.42;;
34278;SDS011;20538;51.528;9.942;2023-06-05T12:28:29;5.38;;;2.70;;
34278;SDS011;20538;51.528;9.942;2023-06-05T12:30:56;5.78;;;2.80;;
34278;SDS011;20538;51.528;9.942;2023-06-05T12:33:23;5.63;;;2.88;;
34278;SDS011;20538;51.528;9.942;2023-06-05T12:36:10;4.68;;;2.20;;
34278;SDS011;20538;51.528;9.942;2023-06-05T12:41:11;10.02;;;3.40;;
34278;SDS011;20538;51.528;9.942;2023-06-05T12:43:37;5.30;;;2.63;;
34278;SDS011;20538;51.528;9.942;2023-06-05T12:46:04;4.50;;;2.55;;
34278;SDS011;20538;51.528;9.942;2023-06-05T12:48:31;3.72;;;2.30;;
34278;SDS011;20538;51.528;9.942;2023-06-05T12:50:56;2.92;;;2.05;;
34278;SDS011;20538;51.528;9.942;2023-06-05T12:53:22;5.22;;;2.42;;
34278;SDS011;20538;51.528;9.942;2023-06-05T12:55:48;5.18;;;2.42;;
34278;SDS011;20538;51.528;9.942;2023-06-05T12:58:13;4.38;;;2.08;;
34278;SDS011;20538;51.528;9.942;2023-06-05T13:00:39;5.80;;;2.35;;
34278;SDS011;20538;51.528;9.942;2023-06-05T13:03:05;4.78;;;2.45;;
34278;SDS011;20538;51.528;9.942;2023-06-05T13:05:31;8.48;;;2.83;;
34278;SDS011;20538;51.528;9.942;2023-06-05T13:07:57;5.60;;;2.90;;
34278;SDS011;20538;51.528;9.942;2023-06-05T13:10:24;6.60;;;3.20;;
34278;SDS011;20538;51.528;9.942;2023-06-05T13:12:50;3.63;;;2.00;;
34278;SDS011;20538;51.528;9.942;2023-06-05T13:15:15;4.35;;;2.78;;
34278;SDS011;20538;51.528;9.942;2023-06-05T13:17:41;6.03;;;2.45;;
34278;SDS011;20538;51.528;9.942;2023-06-05T13:20:08;7.00;;;2.92;;
34278;SDS011;20538;51.528;9.942;2023-06-05T13:22:35;6.47;;;2.50;;
34278;SDS011;20538;51.528;9.942;2023-06-05T13:25:07;4.03;;;2.25;;
34278;SDS011;20538;51.528;9.942;2023-06-05T13:27:34;5.38;;;2.70;;
34278;SDS011;20538;51.528;9.942;2023-06-05T13:30:00;3.28;;;2.13;;
34278;SDS011;20538;51.528;9.942;2023-06-05T13:32:28;4.13;;;2.20;;
34278;SDS011;20538;51.528;9.942;2023-06-05T13:34:57;2.38;;;2.03;;
34278;SDS011;20538;51.528;9.942;2023-06-05T13:37:23;5.82;;;2.20;;
34278;SDS011;20538;51.528;9.942;2023-06-05T13:39:49;4.45;;;2.28;;
34278;SDS011;20538;51.528;9.942;2023-06-05T13:42:15;7.40;;;2.47;;
34278;SDS011;20538;51.528;9.942;2023-06-05T13:44:40;5.75;;;2.40;;
34278;SDS011;20538;51.528;9.942;2023-06-05T13:47:06;4.50;;;2.15;;
34278;SDS011;20538;51.528;9.942;2023-06-05T13:49:34;3.70;;;2.35;;
34278;SDS011;20538;51.528;9.942;2023-06-05T13:52:00;6.05;;;2.40;;
34278;SDS011;20538;51.528;9.942;2023-06-05T13:54:25;6.95;;;2.40;;
34278;SDS011;20538;51.528;9.942;2023-06-05T13:56:51;4.70;;;2.25;;
34278;SDS011;20538;51.528;9.942;2023-06-05T13:59:18;4.95;;;2.22;;
34278;SDS011;20538;51.528;9.942;2023-06-05T14:01:44;4.35;;;2.47;;
34278;SDS011;20538;51.528;9.942;2023-06-05T14:04:10;4.18;;;2.60;;
34278;SDS011;20538;51.528;9.942;2023-06-05T14:06:36;7.88;;;2.65;;
34278;SDS011;20538;51.528;9.942;2023-06-05T14:09:04;3.63;;;2.30;;
34278;SDS011;20538;51.528;9.942;2023-06-05T14:11:31;3.67;;;2.42;;
34278;SDS011;20538;51.528;9.942;2023-06-05T14:13:57;7.43;;;2.72;;
34278;SDS011;20538;51.528;9.942;2023-06-05T14:16:23;3.55;;;2.47;;
34278;SDS011;20538;51.528;9.942;2023-06-05T14:18:49;7.40;;;2.45;;
34278;SDS011;20538;51.528;9.942;2023-06-05T14:21:15;6.28;;;2.45;;
34278;SDS011;20538;51.528;9.942;2023-06-05T14:23:41;3.35;;;2.38;;
34278;SDS011;20538;51.528;9.942;2023-06-05T14:26:07;5.72;;;2.40;;
34278;SDS011;20538;51.528;9.942;2023-06-05T14:28:35;5.93;;;2.45;;
34278;SDS011;20538;51.528;9.942;2023-06-05T14:31:01;3.60;;;2.47;;
34278;SDS011;20538;51.528;9.942;2023-06-05T14:33:27;5.07;;;2.25;;
34278;SDS011;20538;51.528;9.942;2023-06-05T14:35:55;2.60;;;2.38;;
34278;SDS011;20538;51.528;9.942;2023-06-05T14:38:23;4.15;;;2.08;;
34278;SDS011;20538;51.528;9.942;2023-06-05T14:40:49;5.30;;;2.42;;
34278;SDS011;20538;51.528;9.942;2023-06-05T14:43:16;6.97;;;2.50;;
34278;SDS011;20538;51.528;9.942;2023-06-05T14:45:42;5.47;;;2.65;;
34278;SDS011;20538;51.528;9.942;2023-06-05T14:48:07;4.15;;;2.40;;
34278;SDS011;20538;51.528;9.942;2023-06-05T14:50:35;7.65;;;2.30;;
34278;SDS011;20538;51.528;9.942;2023-06-05T14:53:01;5.65;;;2.60;;
34278;SDS011;20538;51.528;9.942;2023-06-05T14:55:27;5.80;;;2.75;;
34278;SDS011;20538;51.528;9.942;2023-06-05T14:57:55;7.43;;;2.55;;
34278;SDS011;20538;51.528;9.942;2023-06-05T15:00:21;4.32;;;2.30;;
34278;SDS011;20538;51.528;9.942;2023-06-05T15:02:47;5.15;;;2.30;;
34278;SDS011;20538;51.528;9.942;2023-06-05T15:05:13;4.57;;;2.58;;
34278;SDS011;20538;51.528;9.942;2023-06-05T15:07:39;3.78;;;2.08;;
34278;SDS011;20538;51.528;9.942;2023-06-05T15:10:06;8.43;;;2.50;;
34278;SDS011;20538;51.528;9.942;2023-06-05T15:12:36;4.90;;;2.30;;
34278;SDS011;20538;51.528;9.942;2023-06-05T15:15:06;8.27;;;2.08;;
34278;SDS011;20538;51.528;9.942;2023-06-05T15:17:32;3.22;;;2.20;;
34278;SDS011;20538;51.528;9.942;2023-06-05T15:20:01;4.28;;;2.13;;
34278;SDS011;20538;51.528;9.942;2023-06-05T15:22:30;6.55;;;2.05;;
34278;SDS011;20538;51.528;9.942;2023-06-05T15:24:56;5.35;;;2.17;;
34278;SDS011;20538;51.528;9.942;2023-06-05T15:27:22;5.18;;;2.13;;
34278;SDS011;20538;51.528;9.942;2023-06-05T15:29:48;3.90;;;2.33;;
34278;SDS011;20538;51.528;9.942;2023-06-05T15:32:14;5.22;;;2.00;;
34278;SDS011;20538;51.528;9.942;2023-06-05T15:34:40;2.85;;;2.35;;
34278;SDS011;20538;51.528;9.942;2023-06-05T15:37:08;5.72;;;2.63;;
34278;SDS011;20538;51.528;9.942;2023-06-05T15:39:35;7.93;;;2.78;;
34278;SDS011;20538;51.528;9.942;2023-06-05T15:42:01;5.00;;;1.90;;
34278;SDS011;20538;51.528;9.942;2023-06-05T15:44:27;5.20;;;2.33;;